createdAt,value
2019-05-17T00:02:07.799Z,8.75
2019-05-17T00:04:36.484Z,10.20
2019-05-17T00:07:06.494Z,7.92
2019-05-17T00:09:37.425Z,11.12
2019-05-17T00:12:07.502Z,9.20
2019-05-17T00:14:36.622Z,9.78
2019-05-17T00:17:06.653Z,12.18
2019-05-17T00:19:36.914Z,11.95
2019-05-17T00:22:07.354Z,8.85
2019-05-17T00:24:37.026Z,9.95
2019-05-17T00:27:06.682Z,11.85
2019-05-17T00:29:37.119Z,12.23
2019-05-17T00:32:06.393Z,11.12
2019-05-17T00:34:37.508Z,9.70
2019-05-17T00:37:07.061Z,9.35
2019-05-17T00:39:36.638Z,9.73
2019-05-17T00:42:06.951Z,8.00
2019-05-17T00:44:36.633Z,9.25
2019-05-17T00:47:06.577Z,8.65
2019-05-17T00:49:37.140Z,8.65
2019-05-17T00:52:07.228Z,10.60
2019-05-17T00:54:36.282Z,8.83
2019-05-17T00:57:07.276Z,8.20
2019-05-17T00:59:36.937Z,8.18
2019-05-17T01:02:06.947Z,8.18
2019-05-17T01:04:36.841Z,9.40
2019-05-17T01:07:07.075Z,8.85
2019-05-17T01:09:36.709Z,10.25
2019-05-17T01:12:07.075Z,8.15
2019-05-17T01:14:37.200Z,10.35
2019-05-17T01:17:07.165Z,9.38
2019-05-17T01:19:36.534Z,10.00
2019-05-17T01:22:07.323Z,10.55
2019-05-17T01:24:36.833Z,10.00
2019-05-17T01:27:06.542Z,8.48
2019-05-17T01:29:36.347Z,9.90
2019-05-17T01:32:06.766Z,9.55
2019-05-17T01:34:37.655Z,9.98
2019-05-17T01:37:06.702Z,9.10
2019-05-17T01:39:37.274Z,10.78
2019-05-17T01:42:06.758Z,10.88
2019-05-17T01:44:36.757Z,11.03
2019-05-17T01:47:07.410Z,9.65
2019-05-17T01:49:36.289Z,10.38
2019-05-17T01:52:07.298Z,8.45
2019-05-17T01:54:36.272Z,9.88
2019-05-17T01:57:07.141Z,11.70
2019-05-17T01:59:37.331Z,9.68
2019-05-17T02:02:07.235Z,10.88
2019-05-17T02:04:37.435Z,10.75
2019-05-17T02:07:06.861Z,11.08
2019-05-17T02:09:40.632Z,9.03
2019-05-17T02:12:06.674Z,11.15
2019-05-17T02:14:37.454Z,9.70
2019-05-17T02:17:06.843Z,11.18
2019-05-17T02:19:37.185Z,10.15
2019-05-17T02:22:07.496Z,11.53
2019-05-17T02:24:37.045Z,9.53
2019-05-17T02:27:06.018Z,9.13
2019-05-17T02:29:34.619Z,10.78
2019-05-17T02:32:04.067Z,10.55
2019-05-17T02:34:33.677Z,10.18
2019-05-17T02:37:03.090Z,11.20
2019-05-17T02:39:32.733Z,12.53
2019-05-17T02:42:02.833Z,12.10
2019-05-17T02:44:33.545Z,14.10
2019-05-17T02:47:03.187Z,16.37
2019-05-17T02:49:33.031Z,16.45
2019-05-17T02:52:03.220Z,13.80
2019-05-17T02:54:32.955Z,18.02
2019-05-17T02:57:03.236Z,16.73
2019-05-17T02:59:33.122Z,16.07
2019-05-17T03:02:03.527Z,19.67
2019-05-17T03:04:32.807Z,19.52
2019-05-17T03:07:03.771Z,16.32
2019-05-17T03:09:33.493Z,20.65
2019-05-17T03:12:03.453Z,21.12
2019-05-17T03:14:32.930Z,17.57
2019-05-17T03:17:03.278Z,15.10
2019-05-17T03:19:32.745Z,15.25
2019-05-17T03:22:07.220Z,13.08
2019-05-17T03:24:33.294Z,12.33
2019-05-17T03:27:03.006Z,12.58
2019-05-17T03:29:33.500Z,11.75
2019-05-17T03:32:08.831Z,11.03
2019-05-17T03:34:36.933Z,13.40
2019-05-17T03:37:06.241Z,12.28
2019-05-17T03:39:33.704Z,14.18
2019-05-17T03:42:02.791Z,14.90
2019-05-17T03:44:33.250Z,13.75
2019-05-17T03:47:02.502Z,15.10
2019-05-17T03:49:33.119Z,14.15
2019-05-17T03:52:02.886Z,16.05
2019-05-17T03:54:32.515Z,18.32
2019-05-17T03:57:02.872Z,15.78
2019-05-17T03:59:33.400Z,15.80
2019-05-17T04:02:03.219Z,10.55
2019-05-17T04:04:33.118Z,14.78
2019-05-17T04:07:03.356Z,9.65
2019-05-17T04:09:32.985Z,10.78
2019-05-17T04:12:02.880Z,10.48
2019-05-17T04:14:33.597Z,9.80
2019-05-17T04:17:07.923Z,9.90
2019-05-17T04:19:37.347Z,9.70
2019-05-17T04:22:06.019Z,10.90
2019-05-17T04:24:34.632Z,11.10
2019-05-17T04:27:03.740Z,10.25
2019-05-17T04:29:33.340Z,11.95
2019-05-17T04:32:03.919Z,10.65
2019-05-17T04:34:33.506Z,13.70
2019-05-17T04:37:04.429Z,12.15
2019-05-17T04:39:33.055Z,13.15
2019-05-17T04:42:03.906Z,11.95
2019-05-17T04:44:32.245Z,14.55
2019-05-17T04:47:03.223Z,13.93
2019-05-17T04:49:33.151Z,15.88
2019-05-17T04:52:03.441Z,17.02
2019-05-17T04:54:33.356Z,17.20
2019-05-17T04:57:02.792Z,17.85
2019-05-17T04:59:33.710Z,16.23
2019-05-17T05:02:03.021Z,18.57
2019-05-17T05:04:33.381Z,19.37
2019-05-17T05:07:03.292Z,21.00
2019-05-17T05:09:32.347Z,19.00
2019-05-17T05:12:05.859Z,21.62
2019-05-17T05:14:32.899Z,23.15
2019-05-17T05:17:02.583Z,21.62
2019-05-17T05:19:32.946Z,27.02
2019-05-17T05:22:04.458Z,26.62
2019-05-17T05:24:31.890Z,27.75
2019-05-17T05:27:02.534Z,27.32
2019-05-17T05:29:32.161Z,27.67
2019-05-17T05:32:02.645Z,28.70
2019-05-17T05:34:32.219Z,27.87
2019-05-17T05:37:02.128Z,29.42
2019-05-17T05:39:31.994Z,27.65
2019-05-17T05:42:08.007Z,26.35
2019-05-17T05:44:32.047Z,30.62
2019-05-17T05:47:02.128Z,29.35
2019-05-17T05:49:32.115Z,28.65
2019-05-17T05:52:01.957Z,29.52
2019-05-17T05:54:31.977Z,28.77
2019-05-17T05:57:02.282Z,27.10
2019-05-17T05:59:31.722Z,31.80
2019-05-17T06:02:01.809Z,29.27
2019-05-17T06:04:31.868Z,30.27
2019-05-17T06:07:02.737Z,26.15
2019-05-17T06:09:31.799Z,24.80
2019-05-17T06:12:02.417Z,25.05
2019-05-17T06:14:32.310Z,26.10
2019-05-17T06:17:03.002Z,27.10
2019-05-17T06:19:31.655Z,29.23
2019-05-17T06:22:02.549Z,29.95
2019-05-17T06:24:31.948Z,25.48
2019-05-17T06:27:01.882Z,28.95
2019-05-17T06:29:32.757Z,25.72
2019-05-17T06:32:02.533Z,27.20
2019-05-17T06:34:32.818Z,28.38
2019-05-17T06:37:02.268Z,28.02
2019-05-17T06:39:32.805Z,24.90
2019-05-17T06:42:02.760Z,26.80
2019-05-17T06:44:32.554Z,23.40
2019-05-17T06:47:02.685Z,26.20
2019-05-17T06:49:31.858Z,28.50
2019-05-17T06:52:02.486Z,30.97
2019-05-17T06:54:52.324Z,26.23
2019-05-17T06:57:23.099Z,22.98
2019-05-17T06:59:50.798Z,24.67
2019-05-17T07:02:19.759Z,27.20
2019-05-17T07:04:50.722Z,42.75
2019-05-17T07:07:30.176Z,28.80
2019-05-17T07:10:00.612Z,43.73
2019-05-17T07:12:30.752Z,47.80
2019-05-17T07:15:01.562Z,43.30
2019-05-17T07:17:30.447Z,29.50
2019-05-17T07:19:59.828Z,28.20
2019-05-17T07:22:29.675Z,22.87
2019-05-17T07:24:59.776Z,27.42
2019-05-17T07:27:41.111Z,26.37
2019-05-17T07:29:59.276Z,23.47
2019-05-17T07:32:29.743Z,22.80
2019-05-17T07:35:00.021Z,24.63
2019-05-17T07:37:30.302Z,20.48
2019-05-17T07:40:04.533Z,21.95
2019-05-17T07:42:29.831Z,22.37
2019-05-17T07:45:00.502Z,21.05
2019-05-17T07:47:29.418Z,25.72
2019-05-17T07:50:00.718Z,19.57
2019-05-17T07:52:29.963Z,21.52
2019-05-17T07:55:02.254Z,21.52
2019-05-17T07:57:29.977Z,20.65
2019-05-17T07:59:59.988Z,22.07
2019-05-17T08:02:30.721Z,18.35
2019-05-17T08:05:00.455Z,17.12
2019-05-17T08:07:30.179Z,18.67
2019-05-17T08:10:00.207Z,15.75
2019-05-17T08:12:30.542Z,19.17
2019-05-17T08:14:59.960Z,16.07
2019-05-17T08:17:30.384Z,19.37
2019-05-17T08:20:00.626Z,18.50
2019-05-17T08:22:29.920Z,16.35
2019-05-17T08:25:00.117Z,16.37
2019-05-17T08:27:29.703Z,18.35
2019-05-17T08:29:59.752Z,17.55
2019-05-17T08:32:31.398Z,17.23
2019-05-17T08:35:00.313Z,14.00
2019-05-17T08:37:30.267Z,16.82
2019-05-17T08:40:00.075Z,17.92
2019-05-17T08:42:29.989Z,16.27
2019-05-17T08:45:00.258Z,16.05
2019-05-17T08:47:30.078Z,15.70
2019-05-17T08:50:00.511Z,15.60
2019-05-17T08:52:29.469Z,14.90
2019-05-17T08:55:00.345Z,15.38
2019-05-17T08:57:30.315Z,14.87
2019-05-17T09:00:00.800Z,15.65
2019-05-17T09:02:29.915Z,15.55
2019-05-17T09:05:00.491Z,14.83
2019-05-17T09:07:29.526Z,16.93
2019-05-17T09:09:58.362Z,14.43
2019-05-17T09:12:29.842Z,15.25
2019-05-17T09:15:00.230Z,16.57
2019-05-17T09:17:29.994Z,16.67
2019-05-17T09:20:00.468Z,14.55
2019-05-17T09:22:30.427Z,16.90
2019-05-17T09:24:59.604Z,13.53
2019-05-17T09:27:30.056Z,14.95
2019-05-17T09:30:00.051Z,14.15
2019-05-17T09:32:29.596Z,16.30
2019-05-17T09:35:00.355Z,14.25
2019-05-17T09:37:30.341Z,15.68
2019-05-17T09:39:59.840Z,15.40
2019-05-17T09:42:30.019Z,16.20
2019-05-17T09:45:00.320Z,17.52
2019-05-17T09:47:30.095Z,16.40
2019-05-17T09:50:00.540Z,15.83
2019-05-17T09:52:29.396Z,16.85
2019-05-17T09:55:00.228Z,17.52
2019-05-17T09:57:29.768Z,19.27
2019-05-17T10:00:00.124Z,17.42
2019-05-17T10:02:28.931Z,14.93
2019-05-17T10:04:59.666Z,17.50
2019-05-17T10:07:29.693Z,17.77
2019-05-17T10:09:59.717Z,17.25
2019-05-17T10:12:28.443Z,14.90
2019-05-17T10:14:56.983Z,15.65
2019-05-17T10:17:25.639Z,13.78
2019-05-17T10:19:54.251Z,13.80
2019-05-17T10:22:23.077Z,15.38
2019-05-17T10:24:52.258Z,12.88
2019-05-17T10:27:20.800Z,12.63
2019-05-17T10:29:50.093Z,13.53
2019-05-17T10:32:20.576Z,12.13
2019-05-17T10:34:49.574Z,12.03
2019-05-17T10:37:20.332Z,11.35
2019-05-17T10:39:50.261Z,13.05
2019-05-17T10:42:20.954Z,12.05
2019-05-17T10:44:51.401Z,11.28
2019-05-17T10:47:19.691Z,10.88
2019-05-17T10:49:49.650Z,10.68
2019-05-17T10:52:20.280Z,12.07
2019-05-17T10:54:48.930Z,10.70
2019-05-17T10:57:19.482Z,10.03
2019-05-17T10:59:49.755Z,10.98
2019-05-17T11:02:19.633Z,11.33
2019-05-17T11:04:50.502Z,12.65
2019-05-17T11:07:19.937Z,9.55
2019-05-17T11:09:50.804Z,8.05
2019-05-17T11:12:19.761Z,10.30
2019-05-17T11:14:52.511Z,10.50
2019-05-17T11:17:18.611Z,8.93
2019-05-17T11:19:47.247Z,9.23
2019-05-17T11:22:15.909Z,9.45
2019-05-17T11:24:44.547Z,9.93
2019-05-17T11:27:14.024Z,8.30
2019-05-17T11:29:42.616Z,7.42
2019-05-17T11:32:11.553Z,8.25
2019-05-17T11:34:40.239Z,9.93
2019-05-17T11:37:09.191Z,10.65
2019-05-17T11:39:37.784Z,7.75
2019-05-17T11:42:06.646Z,9.20
2019-05-17T11:44:35.387Z,8.43
2019-05-17T11:47:04.213Z,10.15
2019-05-17T11:49:33.006Z,8.88
2019-05-17T11:52:01.552Z,10.30
2019-05-17T11:54:30.243Z,9.65
2019-05-17T11:56:58.799Z,7.28
2019-05-17T11:59:27.353Z,11.85
2019-05-17T12:01:55.999Z,9.08
2019-05-17T12:04:24.556Z,9.63
2019-05-17T12:06:53.192Z,8.60
2019-05-17T12:09:35.221Z,9.38
2019-05-17T12:11:52.015Z,11.97
2019-05-17T12:14:20.627Z,9.03
2019-05-17T12:16:49.168Z,11.30
2019-05-17T12:19:17.799Z,7.75
2019-05-17T12:21:46.439Z,10.40
2019-05-17T12:24:15.051Z,9.93
2019-05-17T12:26:47.327Z,6.92
2019-05-17T12:29:14.528Z,13.13
2019-05-17T12:31:43.095Z,13.28
2019-05-17T12:34:11.699Z,19.65
2019-05-17T12:36:40.243Z,17.77
2019-05-17T12:39:09.578Z,15.48
2019-05-17T12:41:38.063Z,20.88
2019-05-17T12:44:06.602Z,21.02
2019-05-17T12:46:35.246Z,19.40
2019-05-17T12:49:03.866Z,16.25
2019-05-17T12:51:33.028Z,14.28
2019-05-17T12:54:01.799Z,14.80
2019-05-17T12:56:30.410Z,17.40
2019-05-17T12:58:59.274Z,13.68
2019-05-17T13:01:27.808Z,15.08
2019-05-17T13:03:56.340Z,11.80
2019-05-17T13:06:24.939Z,12.90
2019-05-17T13:08:53.485Z,10.75
2019-05-17T13:11:22.052Z,12.85
2019-05-17T13:13:50.682Z,15.80
2019-05-17T13:16:19.519Z,11.65
2019-05-17T13:18:48.186Z,9.93
2019-05-17T13:21:16.726Z,12.82
2019-05-17T13:23:45.219Z,11.43
2019-05-17T13:26:13.864Z,9.43
2019-05-17T13:28:42.523Z,8.80
2019-05-17T13:31:11.239Z,9.98
2019-05-17T13:33:39.698Z,13.78
2019-05-17T13:36:08.443Z,14.40
2019-05-17T13:38:37.308Z,9.75
2019-05-17T13:41:06.583Z,8.53
2019-05-17T13:43:35.504Z,12.73
2019-05-17T13:46:04.102Z,6.30
2019-05-17T13:48:32.663Z,5.92
2019-05-17T13:51:01.196Z,7.92
2019-05-17T13:53:29.806Z,7.80
2019-05-17T13:55:58.726Z,8.30
2019-05-17T13:58:27.287Z,5.47
2019-05-17T14:00:55.927Z,7.20
2019-05-17T14:03:24.482Z,7.28
2019-05-17T14:05:53.011Z,5.35
2019-05-17T14:08:21.666Z,5.22
2019-05-17T14:10:50.254Z,5.05
2019-05-17T14:13:19.101Z,5.17
2019-05-17T14:15:47.630Z,5.90
2019-05-17T14:18:16.090Z,7.58
2019-05-17T14:20:44.807Z,6.35
2019-05-17T14:23:13.348Z,6.55
2019-05-17T14:25:41.969Z,6.92
2019-05-17T14:28:11.462Z,5.95
2019-05-17T14:30:40.243Z,6.72
2019-05-17T14:33:08.848Z,6.80
2019-05-17T14:35:37.665Z,6.53
2019-05-17T14:38:06.476Z,6.00
2019-05-17T14:41:05.078Z,6.05
2019-05-17T14:43:05.306Z,4.97
2019-05-17T14:45:33.919Z,4.20
2019-05-17T14:48:02.542Z,6.85
2019-05-17T14:50:31.085Z,4.85
2019-05-17T14:52:59.653Z,5.00
2019-05-17T14:55:28.179Z,5.10
2019-05-17T14:57:56.651Z,3.80
2019-05-17T15:00:25.227Z,5.25
2019-05-17T15:02:53.829Z,4.58
2019-05-17T15:05:22.824Z,5.58
2019-05-17T15:07:51.379Z,4.00
2019-05-17T15:10:20.200Z,9.30
2019-05-17T15:12:48.766Z,4.37
2019-05-17T15:15:25.655Z,4.20
2019-05-17T15:17:47.989Z,5.25
2019-05-17T15:20:16.596Z,6.60
2019-05-17T15:22:45.196Z,5.08
2019-05-17T15:25:14.173Z,4.00
2019-05-17T15:27:43.049Z,6.75
2019-05-17T15:30:13.362Z,5.87
2019-05-17T15:32:41.935Z,5.37
2019-05-17T15:35:10.922Z,8.48
2019-05-17T15:37:39.506Z,7.08
2019-05-17T15:40:28.922Z,6.97
2019-05-17T15:42:57.463Z,7.22
2019-05-17T15:45:26.050Z,7.53
2019-05-17T15:47:54.658Z,7.92
2019-05-17T15:50:25.692Z,9.20
2019-05-17T15:52:54.355Z,8.35
2019-05-17T15:55:23.049Z,7.12
2019-05-17T15:57:51.712Z,6.60
2019-05-17T16:00:41.119Z,10.00
2019-05-17T16:03:09.664Z,8.48
2019-05-17T16:05:38.283Z,8.08
2019-05-17T16:08:29.457Z,7.58
2019-05-17T16:10:56.422Z,13.28
2019-05-17T16:13:25.068Z,9.00
2019-05-17T16:15:53.602Z,8.23
2019-05-17T16:18:22.098Z,5.87
2019-05-17T16:20:51.067Z,5.42
2019-05-17T16:23:19.626Z,5.60
2019-05-17T16:25:48.291Z,5.30
2019-05-17T16:28:16.866Z,7.15
2019-05-17T16:30:45.458Z,9.20
2019-05-17T16:33:14.036Z,6.17
2019-05-17T16:35:42.795Z,5.97
2019-05-17T16:38:11.332Z,4.90
2019-05-17T16:40:39.870Z,7.00
2019-05-17T16:43:17.690Z,6.87
2019-05-17T16:45:38.804Z,5.35
2019-05-17T16:48:07.524Z,6.87
2019-05-17T16:50:36.140Z,7.00
2019-05-17T16:53:06.519Z,6.33
2019-05-17T16:55:35.916Z,6.87
2019-05-17T16:58:04.828Z,6.33
2019-05-17T17:00:36.671Z,8.53
2019-05-17T17:03:05.944Z,9.93
2019-05-17T17:05:35.187Z,6.58
2019-05-17T17:08:04.455Z,7.33
2019-05-17T17:10:33.162Z,7.97
2019-05-17T17:13:02.155Z,5.92
2019-05-17T17:15:30.830Z,7.65
2019-05-17T17:17:59.346Z,7.30
2019-05-17T17:20:28.041Z,6.62
2019-05-17T17:22:56.593Z,6.67
2019-05-17T17:25:25.288Z,7.92
2019-05-17T17:27:53.819Z,6.40
2019-05-17T17:30:23.194Z,7.28
2019-05-17T17:32:51.802Z,8.43
2019-05-17T17:35:20.626Z,6.60
2019-05-17T17:37:49.162Z,6.85
2019-05-17T17:40:22.516Z,5.67
2019-05-17T17:42:51.495Z,7.53
2019-05-17T17:45:22.281Z,7.53
2019-05-17T17:47:51.328Z,9.33
2019-05-17T17:50:20.117Z,6.83
2019-05-17T17:52:51.727Z,7.03
2019-05-17T17:55:20.960Z,8.83
2019-05-17T17:57:49.955Z,8.25
2019-05-17T18:00:19.379Z,7.87
2019-05-17T18:02:48.353Z,7.22
2019-05-17T18:05:17.127Z,8.65
2019-05-17T18:07:45.659Z,8.70
2019-05-17T18:10:26.496Z,8.05
2019-05-17T18:12:55.378Z,11.88
2019-05-17T18:15:29.527Z,7.30
2019-05-17T18:17:58.136Z,8.93
2019-05-17T18:20:26.734Z,8.35
2019-05-17T18:22:55.302Z,9.05
2019-05-17T18:25:23.900Z,7.80
2019-05-17T18:27:52.563Z,8.75
2019-05-17T18:30:21.257Z,8.38
2019-05-17T18:32:49.872Z,8.78
2019-05-17T18:35:18.606Z,11.20
2019-05-17T18:37:47.282Z,9.03
2019-05-17T18:40:15.920Z,9.03
2019-05-17T18:42:44.472Z,8.10
2019-05-17T18:45:13.398Z,7.30
2019-05-17T18:47:42.019Z,8.95
2019-05-17T18:50:10.747Z,8.45
2019-05-17T18:52:39.315Z,8.83
2019-05-17T18:55:08.529Z,8.08
2019-05-17T18:57:37.180Z,8.73
2019-05-17T19:00:07.508Z,8.45
2019-05-17T19:02:36.196Z,9.35
2019-05-17T19:05:08.548Z,10.88
2019-05-17T19:07:37.856Z,10.03
2019-05-17T19:10:07.643Z,9.00
2019-05-17T19:12:37.114Z,11.03
2019-05-17T19:15:08.770Z,10.05
2019-05-17T19:17:38.186Z,9.08
2019-05-17T19:20:08.814Z,9.70
2019-05-17T19:22:38.956Z,11.68
2019-05-17T19:25:10.113Z,10.18
2019-05-17T19:27:39.484Z,12.15
2019-05-17T19:30:09.253Z,11.53
2019-05-17T19:32:38.579Z,11.75
2019-05-17T19:35:08.837Z,12.78
2019-05-17T19:37:37.966Z,13.22
2019-05-17T19:40:10.729Z,14.45
2019-05-17T19:42:39.962Z,12.53
2019-05-17T19:45:12.079Z,13.32
2019-05-17T19:47:41.283Z,13.68
2019-05-17T19:50:17.143Z,15.63
2019-05-17T19:53:06.675Z,12.30
2019-05-17T19:59:16.987Z,13.15
2019-05-17T20:02:06.413Z,15.77
2019-05-17T20:08:33.699Z,11.78
2019-05-17T20:13:55.564Z,12.78
2019-05-17T20:19:00.799Z,12.28
2019-05-17T20:21:31.327Z,14.47
2019-05-17T20:24:00.636Z,11.83
2019-05-17T20:26:30.369Z,13.00
2019-05-17T20:29:06.167Z,11.45
2019-05-17T20:31:36.121Z,10.68
2019-05-17T20:34:06.567Z,11.48
2019-05-17T20:36:44.369Z,13.32
2019-05-17T20:39:14.023Z,12.75
2019-05-17T20:41:43.288Z,14.70
2019-05-17T20:44:22.146Z,11.53
2019-05-17T20:46:51.629Z,11.03
2019-05-17T20:49:21.691Z,13.75
2019-05-17T20:51:55.465Z,10.70
2019-05-17T20:54:25.140Z,13.20
2019-05-17T20:56:55.681Z,10.95
2019-05-17T20:59:39.042Z,11.78
2019-05-17T21:02:08.926Z,12.18
2019-05-17T21:04:53.420Z,10.68
2019-05-17T21:07:28.185Z,9.93
2019-05-17T21:09:58.369Z,11.53
2019-05-17T21:12:31.566Z,10.25
2019-05-17T21:15:11.801Z,11.88
2019-05-17T21:17:42.006Z,12.35
2019-05-17T21:20:13.540Z,14.75
2019-05-17T21:22:52.518Z,13.48
2019-05-17T21:25:44.274Z,15.50
2019-05-17T21:28:13.541Z,13.80
2019-05-17T21:30:49.871Z,14.43
2019-05-17T21:33:20.026Z,16.50
2019-05-17T21:35:49.572Z,14.60
2019-05-17T21:38:23.231Z,16.12
2019-05-17T21:40:53.441Z,15.30
2019-05-17T21:43:24.116Z,14.73
2019-05-17T21:46:09.282Z,13.13
2019-05-17T21:48:39.576Z,13.18
2019-05-17T21:51:09.351Z,12.55
2019-05-17T21:53:38.353Z,13.98
2019-05-17T21:56:07.881Z,15.20
2019-05-17T21:58:42.304Z,14.98
2019-05-17T22:01:44.035Z,14.03
2019-05-17T22:04:15.115Z,13.80
2019-05-17T22:06:44.461Z,15.05
2019-05-17T22:09:20.977Z,16.07
2019-05-17T22:11:46.227Z,14.05
2019-05-17T22:14:19.316Z,13.58
2019-05-17T22:16:48.607Z,13.40
2019-05-17T22:19:19.080Z,13.25
2019-05-17T22:21:53.513Z,15.32
2019-05-17T22:24:23.759Z,12.85
2019-05-17T22:26:52.822Z,11.93
2019-05-17T22:29:28.020Z,13.78
2019-05-17T22:31:57.780Z,13.95
2019-05-17T22:34:27.887Z,12.85
2019-05-17T22:37:03.630Z,13.48
2019-05-17T22:39:33.249Z,12.98
2019-05-17T22:42:03.681Z,15.72
2019-05-17T22:44:40.452Z,11.85
2019-05-17T22:47:10.416Z,11.95
2019-05-17T22:49:40.018Z,15.88
2019-05-17T22:52:20.044Z,13.43
2019-05-17T22:54:50.091Z,10.63
2019-05-17T22:57:19.803Z,13.58
2019-05-17T22:59:49.260Z,13.80
2019-05-17T23:02:18.957Z,16.82
2019-05-17T23:05:01.583Z,13.00
2019-05-17T23:07:31.493Z,14.35
2019-05-17T23:10:00.559Z,14.83
2019-05-17T23:12:38.702Z,13.28
2019-05-17T23:15:12.319Z,14.00
2019-05-17T23:17:41.886Z,14.85
2019-05-17T23:20:35.478Z,15.63
2019-05-17T23:23:05.920Z,13.62
2019-05-17T23:25:35.309Z,12.73
2019-05-17T23:28:14.159Z,14.35
2019-05-17T23:30:44.718Z,15.25
2019-05-17T23:33:14.175Z,13.90
2019-05-17T23:35:48.489Z,15.85
2019-05-17T23:38:18.412Z,13.22
2019-05-17T23:40:48.191Z,15.18
2019-05-17T23:43:35.933Z,15.78
2019-05-17T23:46:05.560Z,14.30
2019-05-17T23:48:34.953Z,13.90
2019-05-17T23:51:09.722Z,14.60
2019-05-17T23:53:40.704Z,15.38
2019-05-17T23:56:09.745Z,16.15
2019-05-17T23:58:44.985Z,14.03
